Printer image icon. Send To Printer
           

                RAOB DATA MANUAL QUALITY CONTROL (QC) REPORT
                                  MEXICAN
                       From 20160501 through 20160531

 ___DATE___ HOUR REASN DETAILS...

76256/GYM
   20160501  12Z 10158 10158.
   20160503  12Z 10158 10158...Flight equipment failure
   20160504  12Z 10158 10158...Flight equipment failure
   20160505  12Z 10158 10158
   20160506  12Z 10158 10158
   20160507  12Z 10158 10158
   20160508  12Z 10142 10142
   20160508  12Z 10158 10158
   20160511  12Z 10158 10158; Flight equip problem..
   20160512  12Z 10158 10158...Flight equipment failure
   20160515  12Z 10158 10158...Flight equipment failure
   20160516  12Z 10158 10158
   20160518  12Z 10158 10158
   20160519  12Z 10158 10158; Flight equip problems..
   20160520  12Z 10158 10158; Flight equip problem.
   20160521  12Z 10158 10158; Flight equipment problem.
   20160523  12Z 10158 10158...Flight equipment failure.
   20160524  12Z 10158 10158...FLIGHT EQUIPMENT FAILURE.
   20160525  12Z 10158 10158...FLIGHT EQUIPMENT FAILURE.
   20160526  12Z 10158 10158
   20160527  12Z 10158 10158
   20160528  12Z 10158 10158
   20160529  12Z 10158 10158
   20160530  12Z 10158 10158
   20160531  12Z 10158 10158

25 records found

76405/LAP
   20160502  12Z DELET Purged all hgts
   20160504  12Z 10154 10154...Local interference
   20160509  12Z 10158 10158; Flight equip problem.
   20160515  12Z 10158 10158...Flight equipment failure
   20160516  12Z 10158 10158
   20160517  12Z 10158 10158
   20160518  12Z 10158 10158
   20160519  12Z 10158 10158; Flight equip problems..
   20160520  12Z 10158 10158; Flight equip problem.
   20160521  12Z 10158 10158; Flight equipment problem.
   20160522  12Z 10158 10158; Flight equip problem.
   20160523  12Z 10158 10158...Flight equipment failure.
   20160524  12Z 10158 10158...FLIGHT EQUIPMENT FAILURE.
   20160525  12Z 10158 10158...FLIGHT EQUIPMENT FAILURE.

14 records found

76458/MZT
   20160501  00Z 10158 10158
   20160502  00Z 10158 10158
   20160503  00Z 10158 10158; Flight equip problems..
   20160504  00Z 10158 10158; Flight equip probems.
   20160505  00Z 10158 10158; Flight equip problem..
   20160506  00Z 10158 10158...Flight equipment failure
   20160508  00Z 10158 10158.
   20160509  00Z 10158 10158.
   20160510  00Z 10158 10158...Flight equipment failure.
   20160511  00Z 10158 10158
   20160512  00Z 10158 10158
   20160513  00Z 10158 10158; Flight equip problems..
   20160514  00Z 10158 10158
   20160515  00Z 10158 10158
   20160516  00Z 10158 10158
   20160517  00Z 10158 10158.
   20160518  00Z 10158 10158.
   20160519  00Z 10158 10158.
   20160520  00Z 10158 10158
   20160521  00Z 10158 10158
   20160522  00Z 10158 10158...Flight equipment failure
   20160523  00Z 10158 10158...Flight equipment failure
   20160523  12Z DELET Purged heights/temps/humidity 808-527mb...too 
                       high/warm.
   20160524  00Z 10158 10158
   20160525  00Z 10158 10158
   20160526  00Z 10158 10158
   20160527  00Z 10158 10158.
   20160528  00Z 10158 10158.
   20160529  00Z 10158 10158; Flight equip problem.
   20160530  00Z 10158 10158; Flight equip problems..
   20160531  00Z 10158 10158...flight equipment failure

31 records found

76526/ZAC
   20160509  12Z 10142 10142; Ground equip problem.
   20160515  12Z DELET Purged all hgts/temps...erratic
   20160516  12Z DELET Purged all temps...too warm
   20160518  12Z 10142 10142
   20160519  12Z 10142 10142; Ground equip problem..
   20160531  12Z 10144 10144

6 records found

76644/MID
   20160515  12Z 10158 10158...Flight equipment failure

1 record found

76654/MZL
   20160501  00Z 10158 10158
   20160502  00Z 10158 10158
   20160502  12Z DELET Purged all hgts/temps...portions high/warm
   20160503  00Z 10158 10158; Flight equip problems..
   20160503  12Z DELET Purged all hgts/temps...high/warm
   20160506  12Z DELET Purged all hgts/temps...high/warm
   20160507  12Z DELET Purged all hgts and temps...high/warm
   20160508  00Z 10158 10158.
   20160508  12Z DELET Purged all hgts and temps...high/warm
   20160509  00Z 10158 10158.
   20160510  00Z 10158 10158...Flight equipment failure.
   20160511  00Z 10158 10158
   20160512  12Z DELET Purged all hgts/temps...high/warm
   20160514  00Z 10158 10158
   20160515  00Z 10158 10158
   20160517  00Z 10158 10158.
   20160518  00Z 10158 10158.
   20160519  00Z 10158 10158.
   20160520  00Z 10158 10158
   20160522  00Z 10158 10158...Flight equipment failure
   20160524  00Z 10158 10158
   20160525  00Z 10158 10158
   20160526  00Z 10158 10158
   20160527  00Z 10158 10158.
   20160529  00Z 10158 10158; Flight equip problem.
   20160530  00Z 10158 10158; Flight equip problems..
   20160531  00Z 10158 10158...flight equipment failure

27 records found

76679/MEX
   20160510  12Z DELET Purge hts..temps..humidity 925mb up high and warm
   20160528  12Z 10143 10143
   20160531  12Z DELET Purged all hgts and temps

3 records found

76692/HYY
   20160501  00Z 10151 10151
   20160502  00Z 10158 10158
   20160503  12Z DELET Purged hgts/temps 432 mb and up...low/cold
   20160504  00Z 10158 10158; Flight equip probems.
   20160504  12Z DELET Purged all hgts/temps...low/cold
   20160505  00Z 10158 10158; Flight equip problem..
   20160505  12Z DELET Purged all hgts/temps...low/cold.
   20160506  00Z 10158 10158...Flight equipment failure
   20160507  00Z 10158 10158...Flight equipment failure
   20160508  00Z 10158 10158.
   20160509  00Z 10158 10158.
   20160510  00Z 10158 10158...Flight equipment failure.
   20160511  00Z 10158 10158
   20160512  00Z 10158 10158
   20160513  00Z 10158 10158; Flight equip problems..
   20160514  00Z 10158 10158
   20160515  00Z 10158 10158


   20160516  00Z 10158 10158
   20160517  00Z 10158 10158.
   20160518  00Z 10158 10158.
   20160519  00Z 10158 10158.
   20160520  00Z 10158 10158
   20160521  00Z 10158 10158
   20160522  00Z 10158 10158...Flight equipment failure
   20160523  00Z 10158 10158...Flight equipment failure
   20160524  00Z 10158 10158
   20160525  00Z 10158 10158
   20160526  00Z 10158 10158
   20160527  00Z 10158 10158.
   20160529  00Z 10159 10159; Not available.
   20160530  00Z 10158 10158; Flight equip problems..
   20160531  00Z 10158 10158...flight equipment failure

32 records found

76805/ACA
   20160511  12Z 10159 10159; Not available..
   20160512  12Z 10159 10159...Unavailable
   20160514  12Z 10159 10159...Unavailable
   20160515  12Z 10159 10159...Unavailable
   20160516  12Z 10142 10142
   20160517  12Z 10142 10142
   20160518  12Z 10142 10142
   20160520  12Z 10159 10159; Not available.
   20160521  12Z 10159 10159; Not available.
   20160523  12Z 10159 10159.
   20160524  12Z 10159 10159.
   20160525  12Z 10158 10158...FLIGHT EQUIPMENT FAILURE.
   20160526  12Z 10158 10158
   20160527  12Z 10158 10158

14 records found



SELECTED STATIONS WITH NO SDM QC:
  76225/CUU  76394/MTY  76595/CUN  76612/GDL  76743/VHA  76903/TAP




This and related reports are available on the Web at . . .
http://www.nco.ncep.noaa.gov/sib/qap/raobqc/